Astoria, Illinois
Current Conditions -  °F | °C
As of 9:15 PM on Friday 31 Oct 2014 (Local Time) from KMQB Reporting Station
Clear Clear  
Wind Chill: 23°   Ceiling: Unl
Heat Index: 30°   Visibility: 10mi
Dew Point: 22°   Wind: 8mph
Humidity: 72%   Direction: 360°N
Pressure: 30.44"   Gusts: NA
Location:  40.23°N, 90.36°W
Report Text: KMQB 010215Z AUTO 36007KT 10SM CLR M01/M05 A3044 RMK AO2 T10101055
Loading
Personal Weather Stations






























Interactive Weather Map
Tropical Storm Tracking
New forecast layout! Learn more

10-Day Weather Forecast

Advertisements
Track Severe Weather on mobile